Time;durP1;ratioP1;P1;durP2;ratioP2;P2;SDS_P1;SDS_P2;PMS_P1;PMS_P2;Temp;Humidity;BMP_temperature;BMP_pressure;BME280_temperature;BME280_humidity;BME280_pressure;Samples;Min_cycle;Max_cycle;Signal;HPM_P1;HPM_P2
2022/09/06 00:02:18;;;;;;;;;;;;;;;18.00;41.34;102238.25;5048562;28;19931;-50
2022/09/06 00:04:43;;;;;;;;;;;;;;;17.97;41.53;102245.50;5053648;28;19939;-50
2022/09/06 00:07:08;;;;;;;;;;;;;;;17.96;41.61;102240.25;5051548;28;19931;-50
2022/09/06 00:09:34;;;;;;;;;;;;;;;17.94;41.62;102237.66;5047837;28;19971;-50
2022/09/06 00:11:59;;;;;;;;;;;;;;;17.92;41.57;102244.06;5056443;28;19927;-49
2022/09/06 00:14:24;;;;;;;;;;;;;;;17.89;41.62;102249.56;5049946;28;19931;-51
2022/09/06 00:16:50;;;;;;;;;;;;;;;17.87;41.83;102239.03;5053111;28;19933;-50
2022/09/06 00:19:15;;;;;;;;;;;;;;;17.86;41.88;102232.00;5054482;28;20400;-50
2022/09/06 00:21:40;;;;;;;;;;;;;;;17.85;41.74;102234.78;5056841;28;19994;-52
2022/09/06 00:24:06;;;;;;;;;;;;;;;17.84;41.87;102239.22;5056393;28;19948;-49
2022/09/06 00:26:31;;;;;;;;;;;;;;;17.83;42.08;102248.16;5056793;28;19924;-50
2022/09/06 00:28:56;;;;;;;;;;;;;;;17.81;42.09;102242.09;5041000;28;19929;-49
2022/09/06 00:31:23;;;;;;;;;;;;;;;17.79;42.05;102246.66;5051343;28;19924;-50
2022/09/06 00:33:48;;;;;;;;;;;;;;;17.78;42.16;102250.25;5056354;28;19916;-50
2022/09/06 00:36:14;;;;;;;;;;;;;;;17.75;42.20;102255.81;5062448;28;19931;-49
2022/09/06 00:38:40;;;;;;;;;;;;;;;17.72;42.31;102251.50;5056475;28;19935;-50
2022/09/06 00:41:06;;;;;;;;;;;;;;;17.72;42.34;102245.34;5062708;28;19959;-50
2022/09/06 00:43:32;;;;;;;;;;;;;;;17.71;42.40;102244.47;5063714;28;19924;-50
2022/09/06 00:45:57;;;;;;;;;;;;;;;17.70;42.43;102239.28;5056858;28;19935;-50
2022/09/06 00:48:23;;;;;;;;;;;;;;;17.69;42.54;102230.44;5056510;28;19920;-51
2022/09/06 00:50:50;;;;;;;;;;;;;;;17.70;42.55;102231.28;5058577;28;20622;-50
2022/09/06 00:53:16;;;;;;;;;;;;;;;17.70;42.61;102231.28;5059868;28;19927;-50
2022/09/06 00:55:42;;;;;;;;;;;;;;;17.68;42.65;102224.25;5053727;28;19933;-51
2022/09/06 00:58:08;;;;;;;;;;;;;;;17.68;42.75;102226.91;5060612;28;20023;-51
2022/09/06 01:00:33;;;;;;;;;;;;;;;17.66;42.64;102223.47;5050922;28;21133;-50
2022/09/06 01:02:59;;;;;;;;;;;;;;;17.64;42.68;102217.41;5055232;28;19925;-50
2022/09/06 01:05:29;;;;;;;;;;;;;;;17.60;42.98;102213.25;5052678;28;19959;-51
2022/09/06 01:08:09;;;;;;;;;;;;;;;17.61;42.95;102211.44;5054116;28;19924;-50
2022/09/06 01:10:34;;;;;;;;;;;;;;;17.60;42.82;102218.56;5055127;28;20358;-51
2022/09/06 01:13:03;;;;;;;;;;;;;;;17.59;42.98;102230.19;5054842;28;20376;-50
2022/09/06 01:15:28;;;;;;;;;;;;;;;17.58;42.94;102222.28;5051938;28;20006;-50
2022/09/06 01:17:54;;;;;;;;;;;;;;;17.56;43.14;102214.41;5049149;28;19943;-50
2022/09/06 01:20:35;;;;;;;;;;;;;;;17.54;43.06;102218.97;5048770;28;19916;-50
2022/09/06 01:23:27;;;;;;;;;;;;;;;17.54;42.99;102218.97;5054323;28;19978;-50
2022/09/06 01:26:01;;;;;;;;;;;;;;;17.53;43.25;102214.59;5057110;28;19966;-50
2022/09/06 01:28:38;;;;;;;;;;;;;;;17.51;43.11;102214.69;5053150;28;19954;-50
2022/09/06 01:31:21;;;;;;;;;;;;;;;17.50;43.20;102209.44;5053795;28;20415;-51
2022/09/06 01:33:50;;;;;;;;;;;;;;;17.47;43.28;102217.66;5055836;28;20457;-51
2022/09/06 01:36:17;;;;;;;;;;;;;;;17.47;43.36;102217.66;5057273;28;19924;-49
2022/09/06 01:38:43;;;;;;;;;;;;;;;17.45;43.26;102211.56;5052542;28;20025;-50
2022/09/06 01:41:09;;;;;;;;;;;;;;;17.42;43.37;102206.44;5053564;28;20011;-50
2022/09/06 01:43:37;;;;;;;;;;;;;;;17.42;43.46;102211.75;5054993;28;19943;-50
2022/09/06 01:46:14;;;;;;;;;;;;;;;17.40;43.42;102211.00;5048612;28;19935;-52
2022/09/06 01:48:59;;;;;;;;;;;;;;;17.39;43.46;102210.16;5058444;28;20392;-50
2022/09/06 01:51:36;;;;;;;;;;;;;;;17.40;43.55;102214.50;5054353;28;20549;-50
2022/09/06 01:54:04;;;;;;;;;;;;;;;17.37;43.47;102220.88;5047699;28;19924;-50
2022/09/06 01:56:35;;;;;;;;;;;;;;;17.36;43.51;102231.63;5057580;28;19920;-52
2022/09/06 01:59:19;;;;;;;;;;;;;;;17.35;43.55;102236.09;5053246;28;19924;-51
2022/09/06 02:01:45;;;;;;;;;;;;;;;17.34;43.63;102231.72;5046728;28;20857;-50
2022/09/06 02:04:10;;;;;;;;;;;;;;;17.33;43.58;102234.47;5055501;28;20372;-49
2022/09/06 02:06:45;;;;;;;;;;;;;;;17.32;43.71;102228.28;5055638;28;19924;-51
2022/09/06 02:09:13;;;;;;;;;;;;;;;17.30;43.72;102224.03;5053538;28;20339;-52
2022/09/06 02:11:41;;;;;;;;;;;;;;;17.28;43.75;102218.81;5053540;28;20852;-50
2022/09/06 02:14:15;;;;;;;;;;;;;;;17.28;43.67;102221.47;5057505;28;20390;-49
2022/09/06 02:16:43;;;;;;;;;;;;;;;17.25;43.72;102213.69;5049085;28;20392;-50
2022/09/06 02:19:31;;;;;;;;;;;;;;;17.22;43.82;102216.53;5053120;28;19980;-50
2022/09/06 02:21:57;;;;;;;;;;;;;;;17.18;43.97;102215.88;5049278;28;19920;-51
2022/09/06 02:24:27;;;;;;;;;;;;;;;17.16;43.91;102207.13;5052210;28;19932;-49
2022/09/06 02:26:52;;;;;;;;;;;;;;;17.14;43.98;102201.06;5054901;28;20029;-51
2022/09/06 02:29:18;;;;;;;;;;;;;;;17.12;44.02;102202.09;5050602;28;19924;-50
2022/09/06 02:31:46;;;;;;;;;;;;;;;17.10;44.05;102207.50;5052799;28;19924;-51
2022/09/06 02:34:14;;;;;;;;;;;;;;;17.09;44.19;102199.63;5057175;28;19924;-50
2022/09/06 02:36:39;;;;;;;;;;;;;;;17.08;44.14;102205.91;5051446;28;19971;-50
2022/09/06 02:39:05;;;;;;;;;;;;;;;17.06;44.21;102206.00;5049233;28;20070;-50
2022/09/06 02:41:30;;;;;;;;;;;;;;;17.03;44.27;102212.34;5053258;28;20045;-50
2022/09/06 02:43:56;;;;;;;;;;;;;;;17.01;44.33;102218.72;5046621;28;19916;-50
2022/09/06 02:46:23;;;;;;;;;;;;;;;17.00;44.31;102212.56;5052545;28;19995;-49
2022/09/06 02:48:48;;;;;;;;;;;;;;;16.98;44.42;102209.13;5058348;28;19925;-50
2022/09/06 02:51:13;;;;;;;;;;;;;;;16.97;44.47;102204.78;5053984;28;20306;-50
2022/09/06 02:53:39;;;;;;;;;;;;;;;16.97;44.35;102214.53;5050640;28;19924;-50
2022/09/06 02:56:04;;;;;;;;;;;;;;;16.96;44.55;102219.00;5050140;28;19928;-50
2022/09/06 02:58:30;;;;;;;;;;;;;;;16.98;44.52;102219.78;5053846;28;20017;-51
2022/09/06 03:00:55;;;;;;;;;;;;;;;16.97;44.48;102218.06;5051295;28;19958;-52
2022/09/06 03:03:20;;;;;;;;;;;;;;;16.95;44.61;102206.66;5049144;28;20284;-50
2022/09/06 03:05:47;;;;;;;;;;;;;;;16.95;44.64;102206.66;5050828;28;20463;-50
2022/09/06 03:08:12;;;;;;;;;;;;;;;16.94;44.56;102207.56;5057177;28;20395;-50
2022/09/06 03:10:37;;;;;;;;;;;;;;;16.94;44.71;102212.91;5055405;28;19929;-51
2022/09/06 03:13:03;;;;;;;;;;;;;;;16.95;44.50;102203.13;5055694;28;19935;-49
2022/09/06 03:15:28;;;;;;;;;;;;;;;16.95;44.64;102203.13;5049288;28;20351;-50
2022/09/06 03:17:58;;;;;;;;;;;;;;;16.92;44.58;102204.16;5065207;28;20470;-49
2022/09/06 03:20:23;;;;;;;;;;;;;;;16.92;44.61;102204.16;5057449;28;19929;-50
2022/09/06 03:22:48;;;;;;;;;;;;;;;16.89;44.80;102199.88;5051037;28;19928;-50
2022/09/06 03:25:14;;;;;;;;;;;;;;;16.88;44.83;102202.63;5052851;28;19938;-50
2022/09/06 03:27:39;;;;;;;;;;;;;;;16.84;44.73;102196.66;5054199;28;20374;-51
2022/09/06 03:30:05;;;;;;;;;;;;;;;16.82;44.86;102198.53;5053858;28;19946;-50
2022/09/06 03:32:30;;;;;;;;;;;;;;;16.80;44.96;102196.94;5050874;28;19928;-51
2022/09/06 03:34:56;;;;;;;;;;;;;;;16.77;45.06;102190.84;5055498;28;19959;-52
2022/09/06 03:37:21;;;;;;;;;;;;;;;16.79;45.10;102192.56;5057741;28;19924;-52
2022/09/06 03:39:46;;;;;;;;;;;;;;;16.77;45.22;102180.22;5054746;28;20015;-52
2022/09/06 03:42:12;;;;;;;;;;;;;;;16.77;45.11;102185.53;5056295;28;21062;-52
2022/09/06 03:44:37;;;;;;;;;;;;;;;16.75;45.09;102184.78;5051438;28;19990;-51
2022/09/06 03:47:02;;;;;;;;;;;;;;;16.74;45.19;102190.19;5054502;28;20030;-50
2022/09/06 03:49:28;;;;;;;;;;;;;;;16.72;45.26;102189.44;5057592;28;19921;-53
2022/09/06 03:51:53;;;;;;;;;;;;;;;16.68;45.26;102186.13;5059005;28;19920;-51
2022/09/06 03:54:19;;;;;;;;;;;;;;;16.67;45.27;102189.72;5059217;28;19924;-52
2022/09/06 03:56:44;;;;;;;;;;;;;;;16.65;45.30;102191.59;5056570;28;19967;-52
2022/09/06 03:59:09;;;;;;;;;;;;;;;16.62;45.33;102186.47;5051145;28;19924;-51
2022/09/06 04:01:37;;;;;;;;;;;;;;;16.60;45.44;102181.25;5049606;28;19928;-53
2022/09/06 04:04:03;;;;;;;;;;;;;;;16.60;45.38;102177.72;5059843;28;19927;-50
2022/09/06 04:06:28;;;;;;;;;;;;;;;16.58;45.55;102179.63;5059980;28;19946;-52
2022/09/06 04:08:53;;;;;;;;;;;;;;;16.56;45.43;102176.22;5052694;28;19929;-50
2022/09/06 04:11:19;;;;;;;;;;;;;;;16.52;45.55;102177.34;5055914;28;20613;-50
2022/09/06 04:13:44;;;;;;;;;;;;;;;16.49;45.45;102189.00;5056399;28;19924;-50
2022/09/06 04:16:09;;;;;;;;;;;;;;;16.45;45.64;102180.38;5059099;28;19959;-50
2022/09/06 04:18:35;;;;;;;;;;;;;;;16.42;45.63;102183.19;5058333;28;19925;-50
2022/09/06 04:21:00;;;;;;;;;;;;;;;16.39;45.75;102180.75;5038668;28;20510;-51
2022/09/06 04:23:26;;;;;;;;;;;;;;;16.36;45.60;102178.28;5052561;28;19924;-52
2022/09/06 04:25:53;;;;;;;;;;;;;;;16.33;45.73;102178.44;5043431;28;20354;-52
2022/09/06 04:28:19;;;;;;;;;;;;;;;16.29;45.80;102177.78;5056897;28;19924;-53
2022/09/06 04:30:44;;;;;;;;;;;;;;;16.30;45.86;102183.94;5052892;28;20010;-51
2022/09/06 04:33:10;;;;;;;;;;;;;;;16.28;45.82;102172.53;5047749;28;19928;-51
2022/09/06 04:35:35;;;;;;;;;;;;;;;16.26;45.84;102170.00;5053997;28;20415;-52
2022/09/06 04:38:01;;;;;;;;;;;;;;;16.25;45.94;102168.28;5059655;28;19927;-50
2022/09/06 04:40:27;;;;;;;;;;;;;;;16.22;45.86;102163.16;5044195;28;20369;-49
2022/09/06 04:42:52;;;;;;;;;;;;;;;16.22;45.99;102170.28;5049197;28;20108;-51
2022/09/06 04:45:17;;;;;;;;;;;;;;;16.18;45.91;102171.38;5056464;28;20445;-49
2022/09/06 04:47:43;;;;;;;;;;;;;;;16.15;45.93;102167.13;5066589;28;19924;-49
2022/09/06 04:50:08;;;;;;;;;;;;;;;16.14;46.02;102166.25;5063681;28;19928;-50
2022/09/06 04:52:33;;;;;;;;;;;;;;;16.13;46.05;102169.84;5060010;28;19924;-50
2022/09/06 04:54:59;;;;;;;;;;;;;;;16.13;46.16;102172.50;5051796;28;20759;-51
2022/09/06 04:57:24;;;;;;;;;;;;;;;16.12;46.15;102172.59;5058341;28;20391;-50
2022/09/06 04:59:49;;;;;;;;;;;;;;;16.11;46.06;102168.25;5057453;28;20384;-50
2022/09/06 05:02:15;;;;;;;;;;;;;;;16.11;46.13;102168.25;5060765;28;19928;-50
2022/09/06 05:04:40;;;;;;;;;;;;;;;16.11;46.23;102162.94;5063145;28;19921;-49
2022/09/06 05:07:06;;;;;;;;;;;;;;;16.12;46.17;102164.66;5063525;28;19924;-50
2022/09/06 05:09:32;;;;;;;;;;;;;;;16.12;46.18;102165.47;5066177;28;19938;-50
2022/09/06 05:11:58;;;;;;;;;;;;;;;16.13;46.15;102164.53;5067187;28;20015;-50
2022/09/06 05:14:24;;;;;;;;;;;;;;;16.15;46.22;102167.13;5068645;28;20563;-50
2022/09/06 05:16:49;;;;;;;;;;;;;;;16.14;46.19;102166.25;5066649;28;19942;-50
2022/09/06 05:19:15;;;;;;;;;;;;;;;16.15;46.22;102167.97;5064417;28;19967;-50
2022/09/06 05:21:40;;;;;;;;;;;;;;;16.15;46.15;102165.31;5062998;28;19924;-50
2022/09/06 05:24:05;;;;;;;;;;;;;;;16.16;46.26;102166.19;5064508;28;19931;-50
2022/09/06 05:26:31;;;;;;;;;;;;;;;16.15;46.20;102167.97;5064336;28;19920;-49
2022/09/06 05:28:56;;;;;;;;;;;;;;;16.18;46.15;102166.06;5066363;28;19927;-49
2022/09/06 05:31:26;;;;;;;;;;;;;;;16.19;46.17;102159.81;5064792;28;19931;-50
2022/09/06 05:33:52;;;;;;;;;;;;;;;16.19;46.19;102162.47;5064914;28;19923;-50
2022/09/06 05:36:18;;;;;;;;;;;;;;;16.19;46.17;102157.16;5068436;28;20377;-50
2022/09/06 05:38:43;;;;;;;;;;;;;;;16.19;46.26;102165.13;5066191;28;19966;-50
2022/09/06 05:41:08;;;;;;;;;;;;;;;16.22;46.19;102175.59;5067951;28;20043;-50
2022/09/06 05:43:34;;;;;;;;;;;;;;;16.23;46.24;102170.16;5066388;28;20452;-50
2022/09/06 05:45:59;;;;;;;;;;;;;;;16.25;46.24;102170.09;5062919;28;19920;-51
2022/09/06 05:48:24;;;;;;;;;;;;;;;16.26;46.19;102162.03;5063952;28;19938;-50
2022/09/06 05:51:19;;;;;;;;;;;;;;;16.28;46.18;102167.22;5068316;28;19929;-50
2022/09/06 05:53:44;;;;;;;;;;;;;;;16.30;46.22;102171.53;5051904;28;20003;-50
2022/09/06 05:56:11;;;;;;;;;;;;;;;16.33;46.24;102175.78;5063284;28;20024;-51
2022/09/06 05:58:37;;;;;;;;;;;;;;;16.35;46.20;102168.59;5063599;28;20385;-50
2022/09/06 06:01:06;;;;;;;;;;;;;;;16.37;46.28;102161.41;5066082;28;19971;-50
2022/09/06 06:03:32;;;;;;;;;;;;;;;16.39;46.13;102154.19;5063686;28;19982;-50
2022/09/06 06:05:57;;;;;;;;;;;;;;;16.42;46.10;102156.63;5059247;28;20412;-51
2022/09/06 06:08:22;;;;;;;;;;;;;;;16.44;46.20;102151.25;5058544;28;19986;-50
2022/09/06 06:10:48;;;;;;;;;;;;;;;16.45;46.24;102159.13;5058273;28;19929;-50
2022/09/06 06:13:13;;;;;;;;;;;;;;;16.48;46.13;102159.88;5057823;28;20325;-50
2022/09/06 06:15:38;;;;;;;;;;;;;;;16.50;46.26;102153.53;5061092;28;19920;-50
2022/09/06 06:18:04;;;;;;;;;;;;;;;16.52;46.20;102148.97;5059435;28;19928;-50
2022/09/06 06:20:29;;;;;;;;;;;;;;;16.54;46.18;102151.56;5062576;28;19924;-49
2022/09/06 06:22:54;;;;;;;;;;;;;;;16.56;46.33;102150.50;5061210;28;19916;-50
2022/09/06 06:25:24;;;;;;;;;;;;;;;16.58;46.23;102147.75;5043400;28;19920;-49
2022/09/06 06:27:50;;;;;;;;;;;;;;;16.63;46.18;102152.78;5062890;28;19928;-50
2022/09/06 06:30:15;;;;;;;;;;;;;;;16.67;46.11;102152.50;5060435;28;19928;-50
2022/09/06 06:32:40;;;;;;;;;;;;;;;16.69;46.10;102140.00;5062107;28;19921;-50
2022/09/06 06:35:07;;;;;;;;;;;;;;;16.73;46.13;102140.66;5059768;28;20006;-50
2022/09/06 06:37:33;;;;;;;;;;;;;;;16.77;46.13;102145.66;5061371;28;19947;-50
2022/09/06 06:39:58;;;;;;;;;;;;;;;16.81;46.07;102140.16;5061380;28;19932;-50
2022/09/06 06:42:23;;;;;;;;;;;;;;;16.86;45.89;102140.75;5062281;28;19927;-50
2022/09/06 06:44:51;;;;;;;;;;;;;;;16.92;46.09;102145.66;5059857;28;20319;-50
2022/09/06 06:47:17;;;;;;;;;;;;;;;16.96;45.95;102143.69;5059949;28;20091;-50
2022/09/06 06:49:42;;;;;;;;;;;;;;;16.99;45.94;102147.03;5040533;28;20459;-52
2022/09/06 06:52:07;;;;;;;;;;;;;;;17.04;45.92;102139.59;5058605;28;19921;-51
2022/09/06 06:54:33;;;;;;;;;;;;;;;17.08;45.89;102142.06;5059205;28;19936;-50
2022/09/06 06:56:58;;;;;;;;;;;;;;;17.13;45.78;102137.31;5060869;28;19921;-52
2022/09/06 06:59:23;;;;;;;;;;;;;;;17.18;45.72;102130.75;5060083;28;19928;-51
2022/09/06 07:01:49;;;;;;;;;;;;;;;17.24;45.75;102128.66;5060669;28;19921;-50
2022/09/06 07:04:15;;;;;;;;;;;;;;;17.29;45.73;102131.88;5060192;28;19924;-51
2022/09/06 07:06:50;;;;;;;;;;;;;;;17.33;45.74;102123.59;5059657;28;19930;-51
2022/09/06 07:09:17;;;;;;;;;;;;;;;17.40;45.63;102123.19;5059508;28;19973;-50
2022/09/06 07:11:42;;;;;;;;;;;;;;;17.47;45.43;102135.16;5060740;28;20002;-50
2022/09/06 07:14:07;;;;;;;;;;;;;;;17.54;45.53;102127.63;5062394;28;20038;-50
2022/09/06 07:16:33;;;;;;;;;;;;;;;17.59;45.23;102121.06;5063076;28;20391;-50
2022/09/06 07:18:58;;;;;;;;;;;;;;;17.65;45.27;102122.47;5059231;28;19924;-51
2022/09/06 07:21:27;;;;;;;;;;;;;;;17.70;45.19;102117.66;5057872;28;19963;-50
2022/09/06 07:23:53;;;;;;;;;;;;;;;17.76;45.09;102117.25;5062828;28;20312;-52
2022/09/06 07:26:20;;;;;;;;;;;;;;;17.83;44.95;102109.72;5063541;28;20990;-51
2022/09/06 07:28:46;;;;;;;;;;;;;;;17.90;44.91;102111.03;5064512;28;19912;-50
2022/09/06 07:31:18;;;;;;;;;;;;;;;17.97;44.91;102114.13;5060224;28;19924;-50
2022/09/06 07:33:43;;;;;;;;;;;;;;;18.03;44.80;102111.06;5066199;28;20028;-50
2022/09/06 07:36:12;;;;;;;;;;;;;;;18.09;44.78;102115.13;5068437;28;20359;-50
2022/09/06 07:38:58;;;;;;;;;;;;;;;18.16;44.71;102119.09;5051249;28;19932;-50
2022/09/06 07:41:23;;;;;;;;;;;;;;;18.22;44.63;102110.69;5047474;28;19947;-50
2022/09/06 07:43:51;;;;;;;;;;;;;;;18.30;44.45;102112.81;5058987;28;20312;-50
2022/09/06 07:46:16;;;;;;;;;;;;;;;18.37;44.21;102107.91;5063384;28;19921;-50
2022/09/06 07:48:43;;;;;;;;;;;;;;;18.44;44.16;102119.84;5062053;28;19931;-50
2022/09/06 07:51:14;;;;;;;;;;;;;;;18.51;44.29;102112.28;5063383;28;20019;-49
2022/09/06 07:53:40;;;;;;;;;;;;;;;18.58;43.91;102117.06;5060644;28;19920;-52
2022/09/06 07:56:07;;;;;;;;;;;;;;;18.65;44.04;102106.81;5051871;28;19932;-51
2022/09/06 07:58:32;;;;;;;;;;;;;;;18.71;43.98;102116.19;5059759;28;19936;-50
2022/09/06 08:01:16;;;;;;;;;;;;;;;18.80;43.89;102106.69;5059159;28;20299;-51
2022/09/06 08:03:42;;;;;;;;;;;;;;;18.84;43.98;102106.34;5062726;28;20281;-52
2022/09/06 08:06:07;;;;;;;;;;;;;;;18.91;43.91;102106.78;5060938;28;19928;-50
2022/09/06 08:08:33;;;;;;;;;;;;;;;18.96;43.93;102095.81;5066251;28;19925;-51
2022/09/06 08:10:58;;;;;;;;;;;;;;;19.01;43.85;102107.00;5061018;28;20001;-50
2022/09/06 08:13:23;;;;;;;;;;;;;;;19.07;43.82;102103.91;5063638;28;19927;-51
2022/09/06 08:15:56;;;;;;;;;;;;;;;19.11;43.57;102108.06;5063500;28;20017;-50
2022/09/06 08:18:21;;;;;;;;;;;;;;;19.18;43.77;102103.97;5062080;28;19927;-50
2022/09/06 08:20:46;;;;;;;;;;;;;;;19.24;43.50;102108.00;5061322;28;19920;-51
2022/09/06 08:23:12;;;;;;;;;;;;;;;19.29;43.44;102104.97;5065087;28;19925;-50
2022/09/06 08:25:37;;;;;;;;;;;;;;;19.34;43.52;102106.38;5062260;28;20306;-50
2022/09/06 08:28:03;;;;;;;;;;;;;;;19.39;43.42;102106.03;5077965;28;19929;-50
2022/09/06 08:30:29;;;;;;;;;;;;;;;19.43;43.48;102098.66;5062590;28;19925;-50
2022/09/06 08:32:55;;;;;;;;;;;;;;;19.50;43.22;102091.91;5060453;28;20028;-50
2022/09/06 08:35:21;;;;;;;;;;;;;;;19.57;43.08;102089.63;5060397;28;20507;-52
2022/09/06 08:37:46;;;;;;;;;;;;;;;19.63;42.96;102102.50;5061278;28;20526;-51
2022/09/06 08:40:14;;;;;;;;;;;;;;;19.68;42.81;102092.31;5060706;28;20433;-51
2022/09/06 08:42:39;;;;;;;;;;;;;;;19.73;42.82;102095.50;5061392;28;19943;-51
2022/09/06 08:45:09;;;;;;;;;;;;;;;19.77;42.95;102094.28;5062749;28;20323;-50
2022/09/06 08:47:34;;;;;;;;;;;;;;;19.80;42.58;102086.06;5062316;28;19963;-51
2022/09/06 08:50:01;;;;;;;;;;;;;;;19.84;42.91;102088.50;5042078;28;19974;-50
2022/09/06 08:52:46;;;;;;;;;;;;;;;19.90;42.63;102088.03;5061303;28;19989;-51
2022/09/06 08:55:11;;;;;;;;;;;;;;;19.96;42.69;102084.91;5064160;28;19916;-52
2022/09/06 08:57:48;;;;;;;;;;;;;;;20.01;42.33;102074.75;5067118;28;19931;-52
2022/09/06 09:00:13;;;;;;;;;;;;;;;20.04;42.45;102070.97;5066554;28;19959;-50
2022/09/06 09:02:48;;;;;;;;;;;;;;;20.08;42.43;102073.28;5065335;28;19964;-52
2022/09/06 09:05:22;;;;;;;;;;;;;;;20.10;42.32;102079.34;5062715;28;20406;-50
2022/09/06 09:07:59;;;;;;;;;;;;;;;20.15;42.34;102075.50;5066894;28;20307;-50
2022/09/06 09:10:31;;;;;;;;;;;;;;;20.20;42.14;102083.97;5063727;28;20333;-51
2022/09/06 09:13:00;;;;;;;;;;;;;;;20.23;42.21;102073.91;5063802;28;20459;-50
2022/09/06 09:15:25;;;;;;;;;;;;;;;20.28;42.22;102075.38;5065814;28;19924;-50
2022/09/06 09:17:52;;;;;;;;;;;;;;;20.31;41.73;102072.44;5065371;28;19989;-50
2022/09/06 09:20:17;;;;;;;;;;;;;;;20.33;41.81;102071.38;5066820;28;20030;-51
2022/09/06 09:22:43;;;;;;;;;;;;;;;20.33;42.19;102068.72;5062720;28;20408;-52
2022/09/06 09:25:15;;;;;;;;;;;;;;;20.36;41.83;102070.28;5063676;28;19931;-51
2022/09/06 09:27:40;;;;;;;;;;;;;;;20.39;42.01;102057.53;5066881;28;19923;-50
2022/09/06 09:30:06;;;;;;;;;;;;;;;20.45;41.86;102066.03;5047486;28;20300;-51
2022/09/06 09:32:38;;;;;;;;;;;;;;;20.48;41.63;102065.78;5061959;28;19924;-50
2022/09/06 09:35:19;;;;;;;;;;;;;;;20.52;41.50;102051.19;5043791;28;19928;-50
2022/09/06 09:37:45;;;;;;;;;;;;;;;20.56;41.95;102060.69;5064029;28;19927;-51
2022/09/06 09:40:27;;;;;;;;;;;;;;;20.60;41.71;102048.78;5061953;28;19928;-50
2022/09/06 09:42:54;;;;;;;;;;;;;;;20.65;41.63;102048.41;5061797;28;19924;-51
2022/09/06 09:45:22;;;;;;;;;;;;;;;20.70;41.50;102044.38;5062884;28;20445;-51
2022/09/06 09:47:47;;;;;;;;;;;;;;;20.76;41.42;102042.22;5061802;28;19920;-51
2022/09/06 09:50:29;;;;;;;;;;;;;;;20.80;41.51;102032.94;5064308;28;19921;-52
2022/09/06 09:52:55;;;;;;;;;;;;;;;20.84;41.49;102029.06;5064490;28;19912;-52
2022/09/06 09:55:22;;;;;;;;;;;;;;;20.89;41.30;102028.69;5064306;28;19919;-51
2022/09/06 09:57:49;;;;;;;;;;;;;;;20.92;41.04;102029.31;5065998;28;20425;-51
2022/09/06 10:00:31;;;;;;;;;;;;;;;20.96;40.68;102029.91;5063573;28;19971;-51
2022/09/06 10:02:57;;;;;;;;;;;;;;;20.99;41.01;102022.47;5063362;28;19916;-50
2022/09/06 10:05:22;;;;;;;;;;;;;;;21.02;40.86;102010.69;5066153;28;19924;-50
2022/09/06 10:07:50;;;;;;;;;;;;;;;21.05;40.65;102006.88;5065520;28;19917;-50
2022/09/06 10:10:21;;;;;;;;;;;;;;;21.09;40.93;102021.72;5063884;28;19921;-50
2022/09/06 10:12:46;;;;;;;;;;;;;;;21.11;40.88;102014.38;5066281;28;19917;-51
2022/09/06 10:15:30;;;;;;;;;;;;;;;21.14;40.91;102014.16;5048504;28;19935;-51
2022/09/06 10:17:56;;;;;;;;;;;;;;;21.16;40.49;102007.69;5064645;28;19920;-50
2022/09/06 10:20:27;;;;;;;;;;;;;;;21.21;40.66;102001.97;5063260;28;20291;-51
2022/09/06 10:22:56;;;;;;;;;;;;;;;21.23;40.72;101997.34;5063553;28;19978;-51
2022/09/06 10:25:43;;;;;;;;;;;;;;;21.26;40.37;101999.72;5061788;28;19939;-51
2022/09/06 10:28:35;;;;;;;;;;;;;;;21.29;40.15;101999.47;5061486;28;20287;-50
2022/09/06 10:31:12;;;;;;;;;;;;;;;21.30;40.10;102003.84;5057076;28;19920;-50
2022/09/06 10:33:44;;;;;;;;;;;;;;;21.34;40.13;101998.25;5064726;28;19947;-52
2022/09/06 10:36:09;;;;;;;;;;;;;;;21.37;40.24;101989.97;5059362;28;19924;-50
2022/09/06 10:38:41;;;;;;;;;;;;;;;21.40;39.89;101990.56;5062351;28;20308;-50
2022/09/06 10:41:09;;;;;;;;;;;;;;;21.44;40.11;101992.00;5061375;28;19924;-50
2022/09/06 10:43:49;;;;;;;;;;;;;;;21.46;39.83;101983.81;5062135;28;19966;-50
2022/09/06 10:46:17;;;;;;;;;;;;;;;21.48;39.68;101984.53;5064647;28;20561;-50
2022/09/06 10:48:46;;;;;;;;;;;;;;;21.49;39.63;101978.22;5065633;28;20347;-50
2022/09/06 10:51:20;;;;;;;;;;;;;;;21.51;39.33;101981.63;5061711;28;19921;-51
2022/09/06 10:53:55;;;;;;;;;;;;;;;21.53;39.35;101976.13;5062179;28;20311;-52
2022/09/06 10:56:20;;;;;;;;;;;;;;;21.54;39.56;101967.97;5058024;28;20027;-51
2022/09/06 10:58:58;;;;;;;;;;;;;;;21.56;39.52;101970.50;5058791;28;20034;-50
2022/09/06 11:01:29;;;;;;;;;;;;;;;21.57;39.17;101970.38;5057825;28;19921;-51
2022/09/06 11:03:58;;;;;;;;;;;;;;;21.60;39.18;101974.66;5060835;28;19924;-52
2022/09/06 11:06:27;;;;;;;;;;;;;;;21.65;39.25;101968.91;5054255;28;19921;-52
2022/09/06 11:08:58;;;;;;;;;;;;;;;21.68;39.27;101964.13;5061818;28;20726;-52
2022/09/06 11:11:34;;;;;;;;;;;;;;;21.72;39.12;101967.38;5061602;28;20446;-50
2022/09/06 11:14:03;;;;;;;;;;;;;;;21.76;39.08;101969.69;5062602;28;19916;-50
2022/09/06 11:16:38;;;;;;;;;;;;;;;21.81;39.10;101968.41;5063506;28;19920;-51
2022/09/06 11:19:07;;;;;;;;;;;;;;;21.86;39.03;101963.53;5059804;28;19951;-50
2022/09/06 11:21:35;;;;;;;;;;;;;;;21.91;38.45;101964.81;5061446;28;19920;-51
2022/09/06 11:24:12;;;;;;;;;;;;;;;21.96;38.70;101956.38;5061565;28;19946;-50
2022/09/06 11:26:55;;;;;;;;;;;;;;;22.03;38.60;101964.72;5062951;28;19920;-50
2022/09/06 11:29:23;;;;;;;;;;;;;;;22.07;38.49;101963.47;5077451;28;19965;-50
2022/09/06 11:31:55;;;;;;;;;;;;;;;22.12;38.40;101955.03;5062073;28;19916;-53
2022/09/06 11:34:30;;;;;;;;;;;;;;;22.19;38.24;101951.66;5063155;28;20015;-52
2022/09/06 11:37:00;;;;;;;;;;;;;;;22.28;38.02;101943.81;5062457;28;19920;-50
2022/09/06 11:39:46;;;;;;;;;;;;;;;22.33;37.84;101942.41;5039741;28;19924;-52
2022/09/06 11:42:37;;;;;;;;;;;;;;;22.41;37.89;101935.50;5060827;28;19924;-51
2022/09/06 11:45:02;;;;;;;;;;;;;;;22.44;37.77;101938.81;5055151;28;19975;-51
2022/09/06 11:47:36;;;;;;;;;;;;;;;22.49;37.71;101936.53;5076844;28;19913;-51
2022/09/06 11:50:21;;;;;;;;;;;;;;;22.54;37.93;101936.09;5042634;28;20750;-52
2022/09/06 11:52:49;;;;;;;;;;;;;;;22.61;37.47;101933.75;5052677;28;20403;-50
2022/09/06 11:55:16;;;;;;;;;;;;;;;22.65;37.42;101929.78;5057505;28;19986;-51
2022/09/06 11:57:43;;;;;;;;;;;;;;;22.72;37.32;101930.06;5057236;28;19924;-53
2022/09/06 12:00:16;;;;;;;;;;;;;;;22.76;37.19;101926.13;5078185;28;20383;-51
2022/09/06 12:02:43;;;;;;;;;;;;;;;22.80;37.35;101925.69;5062414;28;20384;-51
2022/09/06 12:05:09;;;;;;;;;;;;;;;22.90;37.21;101927.56;5044758;28;19935;-51
2022/09/06 12:07:35;;;;;;;;;;;;;;;22.98;37.10;101914.25;5060849;28;19920;-51
2022/09/06 12:10:10;;;;;;;;;;;;;;;23.06;36.93;101914.41;5051701;28;20303;-51
2022/09/06 12:12:47;;;;;;;;;;;;;;;23.11;37.02;101909.44;5052912;28;20388;-51
2022/09/06 12:15:22;;;;;;;;;;;;;;;23.18;36.80;101904.34;5049744;28;20006;-52
2022/09/06 12:17:47;;;;;;;;;;;;;;;23.22;36.87;101905.78;5055811;28;19925;-51
2022/09/06 12:20:32;;;;;;;;;;;;;;;23.23;36.79;101904.81;5060385;28;19920;-53
2022/09/06 12:22:58;;;;;;;;;;;;;;;23.25;36.63;101904.66;5067490;28;20833;-52
2022/09/06 12:25:33;;;;;;;;;;;;;;;23.23;36.58;101901.25;5055684;28;20421;-55
2022/09/06 12:28:06;;;;;;;;;;;;;;;23.21;36.79;101901.41;5050193;28;19924;-52
2022/09/06 12:30:31;;;;;;;;;;;;;;;23.21;36.53;101897.91;5051879;28;19921;-52
2022/09/06 12:32:57;;;;;;;;;;;;;;;23.21;36.46;101889.84;5049516;28;19962;-52
2022/09/06 12:35:25;;;;;;;;;;;;;;;23.20;36.60;101891.66;5055567;28;19979;-52
2022/09/06 12:37:53;;;;;;;;;;;;;;;23.19;36.61;101894.47;5065458;28;20332;-51
2022/09/06 12:40:20;;;;;;;;;;;;;;;23.19;36.75;101894.47;5054968;28;20011;-51
2022/09/06 12:42:46;;;;;;;;;;;;;;;23.19;36.63;101889.09;5046270;28;20380;-52